Observations for SEATTLE-TACOMA INTL, WA (SEA)

KSEA 202253Z 21011KT 10SM SCT026 BKN039 09/06 A2987 RMK AO2 SLP123 T00940061
KSEA 202233Z 21009KT 10SM SCT021 BKN037 09/06 A2986 RMK AO2 T00940061
KSEA 202153Z 22009KT 10SM FEW005 BKN015 OVC100 09/07 A2983 RMK AO2 RAE07 SLP109 P0000 T00890072 
KSEA 202139Z 22007KT 10SM FEW005 OVC010 09/07 A2982 RMK AO2 RAE07 P0000 T00890072
KSEA 202113Z 23007KT 10SM BKN005 OVC010 09/08 A2980 RMK AO2 RAE07 P0000 T00890078
KSEA 202053Z 23006KT 2 1/2SM R16L/6000VP6000FT -RA BR BKN005 BKN012 OVC020 09/08 A2979 RMK AO2 RAB32 SLP094 VIS S-SW 5 P0005 60021 T00890083 51044  
KSEA 202032Z 21006KT 2SM R16L/5000VP6000FT -RA BR SCT003 BKN012 OVC026 09/08 A2977 RMK AO2 RAB32 P0003 T00890083
KSEA 201953Z 00000KT 10SM SCT003 BKN016 BKN033 09/08 A2974 RMK AO2 RAE36 SLP079 P0003 T00940083 
KSEA 201943Z 00000KT 8SM SCT003 BKN016 BKN033 09/09 A2974 RMK AO2 RAE36 P0003 T00940089
KSEA 201913Z 25006KT 2SM R16L/6000VP6000FT -RA BR FEW002 BKN007 OVC016 09/08 A2973 RMK AO2 P0002 T00890083
KSEA 201857Z 25005KT 2SM -RA BR SCT003 BKN010 OVC016 09/08 A2971 RMK AO2 P0001 T00890083
KSEA 201853Z 24004KT 2SM -RA BR BKN003 OVC010 09/08 A2971 RMK AO2 RAB07 SLP068 P0013 T00890083  
KSEA 201823Z 20005KT 2SM RA BR BKN003 BKN007 OVC011 09/09 A2970 RMK AO2 RAB07 P0007 T00890089
KSEA 201801Z 25006KT 8SM BKN005 OVC038 09/08 A2968 RMK AO2 PRESRR T00940083
KSEA 201753Z 18007KT 10SM SCT003 BKN038 OVC100 09/08 A2966 RMK AO2 RAE19 PRESRR SLP050 P0002 60042 T00940083 10100 20083 51053  
KSEA 201709Z 06006KT 9SM -RA FEW004 SCT009 BKN044 09/08 A2961 RMK AO2 P0002 T00940078
KSEA 201702Z 07006KT 7SM -RA FEW004 BKN008 BKN036 09/08 A2961 RMK AO2 P0002 T00890083
KSEA 201653Z 30003KT 2 1/2SM RA BR FEW005 BKN008 OVC024 09/08 A2962 RMK AO2 RAE26B45 PRESRR SLP038 P0009 T00890083  
KSEA 201634Z 30006KT 4SM BR FEW005 BKN008 OVC022 09/08 A2958 RMK AO2 RAE26 PRESRR P0007 T00890083
KSEA 201553Z 31011KT 2 1/2SM RA BR BKN005 BKN011 OVC017 09/08 A2955 RMK AO2 PRESRR SLP016 P0020 T00890083   
KSEA 201524Z 33007KT 2 1/2SM RA BR BKN005 OVC011 09/08 A2951 RMK AO2 P0011 T00890083
KSEA 201453Z 29005KT 4SM +RA BR BKN027 OVC034 09/08 A2950 RMK AO2 RAB05E22B44 SLP996 P0004 60011 T00890083 56014
KSEA 201418Z 12006KT 7SM -RA BKN029 OVC040 10/08 A2948 RMK AO2 RAB05 P0000 T01000083
KSEA 201353Z 14005KT 8SM SCT027 OVC037 09/08 A2950 RMK AO2 RAE34 SLP998 P0006 T00940078 
KSEA 201338Z 11006KT 10SM SCT030 OVC043 09/08 A2951 RMK AO2 RAE34 P0006 T00890078
KSEA 201253Z 23003KT 9SM -RA OVC029 08/07 A2952 RMK AO2 RAB52 SLP005 P0001 T00830072
KSEA 201153Z 15006KT 10SM OVC026 09/07 A2954 RMK AO2 SLP009 60007 70058 T00890067 10089 20061 58020 
KSEA 201053Z 14004KT 10SM OVC023 08/07 A2957 RMK AO2 SLP019 T00830067   
KSEA 200953Z 13004KT 9SM OVC022 08/07 A2959 RMK AO2 SLP026 T00780067
KSEA 200853Z 13006KT 5SM BR SCT013 OVC027 07/06 A2960 RMK AO2 RAE08 SLP029 P0000 60007 T00720061 56008  
KSEA 200753Z 13007KT 3SM -RA BR BKN022 OVC027 07/06 A2960 RMK AO2 RAE24B44 SLP030 P0002 T00670056 401170039 
KSEA 200653Z 11005KT 3SM -RA BR FEW008 SCT015 OVC026 07/06 A2961 RMK AO2 SLP034 P0005 T00670056 
KSEA 200553Z 00000KT 4SM -RA BR SCT008 BKN019 OVC023 06/05 A2962 RMK AO2 SLP037 P0003 60049 T00610050 10072 20056 56014 
KSEA 200528Z 00000KT 6SM -RA BR FEW006 OVC025 06/05 A2962
KSEA 200528Z 00000KT 6SM -RA BR FEW006 OVC025 06/05 A2962 RMK AO2 P0003 T00610050
KSEA 200453Z 18003KT 7SM -RA FEW012 OVC024 06/05 A2963 RMK AO2 SLP041 P0002 T00610050   
KSEA 200421Z 00000KT 7SM -RA FEW014 BKN028 OVC035 06/04 A2963 RMK AO2 P0001 T00560044
KSEA 200353Z 16009KT 7SM -RA FEW020 OVC039 06/04 A2963 RMK AO2 SLP040 P0017 T00560044   
KSEA 200253Z 16012KT 5SM -RA BR BKN039 OVC049 06/04 A2966 RMK AO2 PRESFR SLP052 P0010 60027 T00610039 58019 
KSEA 200153Z 16006KT 7SM -RA OVC047 06/04 A2970 RMK AO2 SLP067 P0011 T00560039  
KSEA 200053Z 22006KT 7SM -RA OVC050 07/04 A2971 RMK AO2 SLP068 P0006 T00670039  
KSEA 192353Z 22003KT 7SM -RA OVC050 07/04 A2972 RMK AO2 SLP071 P0000 60002 T00720039 10117 20072 58019  
KSEA 192253Z 24007KT 10SM -RA OVC055 09/02 A2974 RMK AO2 RAB2156 SLP079 P0002 T00890017 
KSEA 192153Z 22010KT 10SM OVC055 11/M02 A2976 RMK AO2 SLP084 T01111022